Wetterdaten: aktuell Freitag, 24.05.2019 02:40
Datum Zeit Temp. A. Feuchte A. Luftdruck Regen Wind Sonnenschein ET UV Solar Taupunkt Windchill Windben
24.05.2019 02:40 14,7 C 66 % 1014,6 hPa 0,0 l/m 0,0 km/h (0 Bft) 0 min 0,000 mm 0,0 UV-I 5 W/m 8,4 C 14,7 C 0,0 km/h (0 Bft)
24.05.2019 01:40 14,7 C 66 % 1014,8 hPa 0,0 l/m 0,0 km/h (0 Bft) 0 min 0,000 mm 0,0 UV-I 5 W/m 8,4 C 14,7 C 0,0 km/h (0 Bft)
24.05.2019 00:40 14,7 C 66 % 1015,1 hPa 0,0 l/m 0,0 km/h (0 Bft) 0 min 0,000 mm 0,0 UV-I 5 W/m 8,4 C 14,7 C 0,0 km/h (0 Bft)
23.05.2019 23:38 14,7 C 66 % 1015,3 hPa 0,0 l/m 0,0 km/h (0 Bft) 0 min 0,000 mm 0,0 UV-I 5 W/m 8,4 C 14,7 C 0,0 km/h (0 Bft)
23.05.2019 22:38 14,7 C 66 % 1015,3 hPa 0,0 l/m 0,0 km/h (0 Bft) 0 min 0,000 mm 0,0 UV-I 5 W/m 8,4 C 14,7 C 0,0 km/h (0 Bft)
23.05.2019 21:38 14,7 C 66 % 1015,2 hPa 0,0 l/m 0,0 km/h (0 Bft) 0 min 0,000 mm 0,0 UV-I 5 W/m 8,4 C 14,7 C 0,0 km/h (0 Bft)
23.05.2019 20:38 15,4 C 63 % 1015,0 hPa 0,0 l/m 0,0 km/h (0 Bft) 0 min 0,025 mm 0,0 UV-I 8 W/m 8,4 C 15,4 C 0,0 km/h (0 Bft)
23.05.2019 19:38 17,1 C 51 % 1015,0 hPa 0,0 l/m 1,7 km/h (1 Bft) 0 min 0,051 mm 0,0 UV-I 19 W/m 6,9 C 17,1 C 4,8 km/h (1 Bft)
23.05.2019 18:38 17,8 C 46 % 1015,2 hPa 0,0 l/m 2,6 km/h (1 Bft) 0 min 0,051 mm 0,0 UV-I 26 W/m 6,0 C 17,8 C 4,8 km/h (1 Bft)
23.05.2019 17:38 18,3 C 46 % 1015,5 hPa 0,0 l/m 0,0 km/h (0 Bft) 14 min 0,051 mm 0,0 UV-I 40 W/m 6,5 C 18,3 C 0,0 km/h (0 Bft)
23.05.2019 16:38 17,9 C 45 % 1016,0 hPa 0,0 l/m 0,1 km/h (0 Bft) 60 min 0,355 mm 0,0 UV-I 54 W/m 5,8 C 17,9 C 1,6 km/h (1 Bft)
23.05.2019 15:38 17,8 C 47 % 1016,5 hPa 0,0 l/m 6,8 km/h (2 Bft) 60 min 0,432 mm 2,7 UV-I 614 W/m 6,3 C 17,6 C 11,3 km/h (2 Bft)
23.05.2019 14:38 17,8 C 46 % 1017,0 hPa 0,0 l/m 2,9 km/h (1 Bft) 60 min 0,457 mm 3,5 UV-I 704 W/m 6,0 C 17,8 C 9,7 km/h (2 Bft)
23.05.2019 13:38 17,2 C 51 % 1017,6 hPa 0,0 l/m 4,1 km/h (1 Bft) 60 min 0,457 mm 4,2 UV-I 810 W/m 7,0 C 17,2 C 8,0 km/h (2 Bft)
23.05.2019 12:38 16,6 C 58 % 1018,0 hPa 0,0 l/m 7,0 km/h (2 Bft) 60 min 0,432 mm 4,1 UV-I 830 W/m 8,3 C 16,3 C 11,3 km/h (2 Bft)
23.05.2019 11:38 15,9 C 54 % 1018,3 hPa 0,0 l/m 1,4 km/h (1 Bft) 60 min 0,178 mm 3,7 UV-I 797 W/m 6,6 C 15,9 C 3,2 km/h (1 Bft)
23.05.2019 10:38 14,9 C 62 % 1018,5 hPa 0,0 l/m 3,6 km/h (1 Bft) 16 min 0,000 mm 2,7 UV-I 702 W/m 7,7 C 14,9 C 8,0 km/h (2 Bft)
23.05.2019 09:38 0,0 C 0 % 1018,6 hPa 0,0 l/m 0,0 km/h (0 Bft) 0 min 0,000 mm 0,0 UV-I 0 W/m -60,0 C 0,0 C 0,0 km/h (0 Bft)
23.05.2019 08:38 0,0 C 0 % 1018,7 hPa 0,0 l/m 0,0 km/h (0 Bft) 0 min 0,000 mm 0,0 UV-I 0 W/m -60,0 C 0,0 C 0,0 km/h (0 Bft)
23.05.2019 07:38 0,0 C 0 % 1019,2 hPa 0,0 l/m 0,0 km/h (0 Bft) 0 min 0,000 mm 0,0 UV-I 0 W/m -60,0 C 0,0 C 0,0 km/h (0 Bft)
23.05.2019 06:38 0,0 C 0 % 1019,0 hPa 0,0 l/m 0,0 km/h (0 Bft) 0 min 0,000 mm 0,0 UV-I 0 W/m -60,0 C 0,0 C 0,0 km/h (0 Bft)
23.05.2019 05:40 0,0 C 0 % 1019,0 hPa 0,0 l/m 0,0 km/h (0 Bft) 0 min 0,000 mm 0,0 UV-I 0 W/m -60,0 C 0,0 C 0,0 km/h (0 Bft)
23.05.2019 04:40 0,0 C 0 % 1019,1 hPa 0,0 l/m 0,0 km/h (0 Bft) 0 min 0,000 mm 0,0 UV-I 0 W/m -60,0 C 0,0 C 0,0 km/h (0 Bft)
23.05.2019 03:44 12,6 C 78 % 1019,4 hPa 0,0 l/m 0,0 km/h (0 Bft) 0 min 0,000 mm 0,0 UV-I 9 W/m 8,9 C 12,6 C 0,0 km/h (0 Bft)
23.05.2019 03:00 12,6 C 78 % 1019,3 hPa 0,0 l/m 0,0 km/h (0 Bft) 0 min 0,000 mm 0,0 UV-I 9 W/m 8,9 C 12,6 C 0,0 km/h (0 Bft)
_ Min-Zeit 04:01 04:01 02:28 - 03:00 - - - - 04:01 04:01 03:00
Minimum _ 0,0 C 0 % 1014,6 hPa - 0,0 km/h (0 Bft) - - - - -60,0 C 0,0 C 0,0 km/h (0 Bft)
_ Max-Zeit 15:22 03:00 03:02 03:00 12:20 10:24 13:00 12:46 12:44 15:22 17:20 13:24
Maximum _ 19,1 C 78 % 1019,4 hPa 0,0 l/m 9,5 km/h
SO (2 Bft)
2 min 0,457 mm 4,5 UV-I 880 W/m 9,0 C 19,1 C 17,7 km/h
O-SO (3 Bft)
Durchschnitt _ 11,8 C 45 % 1017,1 hPa #0,0 l/m 1,3 km/h (1 Bft) #0 min. #0,000 mm 0,0 UV-I 5 W/m -9,1 C 11,8 C 2,8 km/h (1 Bft)